Time;durP1;ratioP1;P1;durP2;ratioP2;P2;SDS_P1;SDS_P2;PMS_P1;PMS_P2;Temp;Humidity;BMP_temperature;BMP_pressure;BME280_temperature;BME280_humidity;BME280_pressure;Samples;Min_cycle;Max_cycle;Signal;HPM_P1;HPM_P2
2022/01/10 00:00:51;;;;;;;20.13;7.63;;;;;;;-5.19;68.83;99152.69;5034419;28;20107;-62
2022/01/10 00:03:22;;;;;;;14.13;5.88;;;;;;;-5.22;68.90;99147.75;5034886;28;20055;-61
2022/01/10 00:05:49;;;;;;;16.45;6.15;;;;;;;-5.19;68.83;99152.69;5033840;28;20528;-62
2022/01/10 00:08:16;;;;;;;21.10;8.27;;;;;;;-5.19;68.57;99147.28;5031252;28;20451;-62
2022/01/10 00:10:44;;;;;;;16.92;6.30;;;;;;;-5.19;68.83;99152.69;5034993;28;20501;-62
2022/01/10 00:13:11;;;;;;;17.58;6.72;;;;;;;-5.16;69.06;99152.22;5034828;28;20080;-63
2022/01/10 00:15:38;;;;;;;12.88;6.18;;;;;;;-5.13;68.49;99162.63;5034599;28;20045;-62
2022/01/10 00:18:05;;;;;;;13.27;6.15;;;;;;;-5.11;68.64;99165.88;5034981;28;20140;-61
2022/01/10 00:20:32;;;;;;;20.42;7.25;;;;;;;-5.12;68.36;99156.13;5025950;28;20447;-62
2022/01/10 00:22:59;;;;;;;16.73;7.30;;;;;;;-5.13;68.75;99146.34;5034757;28;20103;-61
2022/01/10 00:25:26;;;;;;;14.65;6.18;;;;;;;-5.15;69.00;99151.97;5034212;28;20059;-61
2022/01/10 00:27:54;;;;;;;13.25;5.55;;;;;;;-5.17;68.78;99156.00;5034577;28;20057;-62
2022/01/10 00:30:23;;;;;;;16.65;8.10;;;;;;;-5.19;68.70;99153.53;5033889;28;20419;-61
2022/01/10 00:32:51;;;;;;;16.55;6.50;;;;;;;-5.30;68.78;99150.88;5033098;28;20500;-61
2022/01/10 00:35:19;;;;;;;13.95;6.18;;;;;;;-5.32;69.05;99151.13;5034105;28;20184;-62
2022/01/10 00:37:46;;;;;;;21.88;6.28;;;;;;;-5.30;69.00;99150.88;5031031;28;20053;-61
2022/01/10 00:40:16;;;;;;;15.18;6.05;;;;;;;-5.26;69.37;99146.59;5033987;28;20049;-62
2022/01/10 00:42:44;;;;;;;13.18;6.07;;;;;;;-5.28;69.22;99146.00;5033870;28;20051;-55
2022/01/10 00:45:17;;;;;;;26.38;10.20;;;;;;;-5.29;68.57;99147.09;5033924;28;20045;-61
2022/01/10 00:47:48;;;;;;;14.52;6.85;;;;;;;-5.29;68.85;99147.94;5031021;28;20140;-58
2022/01/10 00:50:16;;;;;;;14.30;6.43;;;;;;;-5.36;69.16;99151.84;5033536;28;20060;-59
2022/01/10 00:52:43;;;;;;;15.35;5.97;;;;;;;-5.37;69.20;99155.59;5033732;28;20132;-59
2022/01/10 00:55:11;;;;;;;13.52;5.93;;;;;;;-5.37;68.94;99148.28;5032557;28;20053;-59
2022/01/10 00:57:38;;;;;;;12.85;5.65;;;;;;;-5.37;69.70;99144.75;5029730;28;20072;-59
2022/01/10 01:00:08;;;;;;;16.17;6.72;;;;;;;-5.36;69.21;99143.72;5034660;28;20049;-59
2022/01/10 01:02:35;;;;;;;17.53;6.10;;;;;;;-5.38;69.16;99143.13;5013359;28;20060;-58
2022/01/10 01:05:06;;;;;;;16.38;6.40;;;;;;;-5.32;69.15;99136.72;5033728;28;20053;-59
2022/01/10 01:07:34;;;;;;;13.50;5.65;;;;;;;-5.23;69.31;99140.72;5033257;28;20493;-58
2022/01/10 01:10:28;;;;;;;14.38;4.45;;;;;;;-5.20;68.93;99138.34;5033863;28;20064;-58
2022/01/10 01:12:56;;;;;;;17.38;6.32;;;;;;;-5.18;68.90;99136.19;5033476;28;20152;-60
2022/01/10 01:15:29;;;;;;;13.98;6.53;;;;;;;-5.15;68.72;99138.41;5033276;28;20053;-59
2022/01/10 01:26:03;;;;;;;14.32;5.75;;;;;;;-5.01;68.47;99123.53;5033342;28;20042;-60
2022/01/10 01:28:31;;;;;;;15.43;5.95;;;;;;;-4.98;68.77;99127.66;5033560;28;20053;-59
2022/01/10 01:30:58;;;;;;;14.45;6.30;;;;;;;-4.95;68.50;99124.47;5033291;28;20060;-58
2022/01/10 01:33:25;;;;;;;18.67;6.82;;;;;;;-4.95;68.80;99121.75;5029639;28;20053;-57
2022/01/10 01:35:53;;;;;;;13.98;6.55;;;;;;;-4.96;68.77;99125.50;5032854;28;20071;-60
2022/01/10 01:38:20;;;;;;;15.60;6.35;;;;;;;-4.93;68.88;99119.59;5033467;28;20080;-58
2022/01/10 01:41:11;;;;;;;17.63;6.30;;;;;;;-4.88;68.32;99119.69;5032736;28;20063;-58
2022/01/10 01:43:34;;;;;;;12.82;6.45;;;;;;;-4.85;68.50;99111.06;5033130;28;20128;-58
2022/01/10 01:46:01;;;;;;;15.75;6.32;;;;;;;-4.79;68.66;99115.50;5032742;28;20057;-60
2022/01/10 01:48:28;;;;;;;16.67;7.28;;;;;;;-4.79;68.99;99112.81;5031772;28;20046;-59
2022/01/10 01:50:55;;;;;;;15.70;6.00;;;;;;;-4.81;68.56;99107.63;5032860;28;20060;-58
2022/01/10 01:53:21;;;;;;;18.60;6.00;;;;;;;-4.81;69.16;99106.78;5033107;28;20068;-57
2022/01/10 01:55:49;;;;;;;13.80;5.68;;;;;;;-4.80;68.68;99119.31;5032324;28;20459;-59
2022/01/10 01:58:16;;;;;;;12.95;6.07;;;;;;;-4.80;68.97;99108.44;5033010;28;20049;-58
2022/01/10 02:00:42;;;;;;;15.05;6.80;;;;;;;-4.79;68.78;99113.63;5032345;28;20055;-59
2022/01/10 02:03:09;;;;;;;15.88;6.55;;;;;;;-4.80;68.91;99113.88;5032121;28;20064;-59
2022/01/10 02:05:36;;;;;;;12.75;5.18;;;;;;;-4.83;69.17;99111.66;5031095;28;20088;-60
2022/01/10 02:08:04;;;;;;;12.48;6.00;;;;;;;-4.88;69.07;99106.13;5029337;28;20056;-59
2022/01/10 02:10:30;;;;;;;25.23;7.07;;;;;;;-4.92;69.02;99094.13;5028632;28;20064;-61
2022/01/10 02:12:57;;;;;;;17.85;5.93;;;;;;;-4.90;69.06;99100.13;5027925;28;20053;-59
2022/01/10 02:15:35;;;;;;;14.82;6.20;;;;;;;-4.86;69.42;99095.88;5032459;28;20619;-59
2022/01/10 02:18:03;;;;;;;15.30;6.32;;;;;;;-4.84;69.17;99099.97;5029388;28;20404;-61
2022/01/10 02:20:31;;;;;;;11.77;5.95;;;;;;;-4.88;68.89;99103.41;5024485;28;20046;-58
2022/01/10 02:22:59;;;;;;;15.90;5.85;;;;;;;-4.95;69.30;99094.63;5032118;28;20140;-59
2022/01/10 02:25:26;;;;;;;13.93;5.80;;;;;;;-4.97;68.93;99102.16;5032247;28;20525;-59
2022/01/10 02:27:53;;;;;;;11.80;5.82;;;;;;;-4.95;69.63;99094.63;5031686;28;20136;-59
2022/01/10 02:30:20;;;;;;;14.35;6.25;;;;;;;-4.92;69.31;99100.38;5032091;28;20156;-56
2022/01/10 02:32:48;;;;;;;15.57;6.03;;;;;;;-4.96;69.03;99098.38;5031673;28;20136;-58
2022/01/10 02:35:23;;;;;;;19.23;6.57;;;;;;;-5.00;69.62;99105.38;5032784;28;20049;-60
2022/01/10 02:37:52;;;;;;;16.98;6.57;;;;;;;-5.00;69.20;99097.22;5031526;28;20052;-60
2022/01/10 02:40:21;;;;;;;18.48;6.55;;;;;;;-4.96;69.31;99101.09;5032408;28;20523;-60
2022/01/10 02:42:49;;;;;;;18.48;7.43;;;;;;;-4.92;69.66;99105.78;5031707;28;20041;-61
2022/01/10 02:45:17;;;;;;;17.27;7.25;;;;;;;-4.93;68.86;99097.91;5032667;28;20053;-58
2022/01/10 02:47:45;;;;;;;17.80;6.75;;;;;;;-4.92;69.24;99104.97;5032203;28;20148;-57
2022/01/10 02:50:12;;;;;;;14.23;6.57;;;;;;;-4.95;69.29;99083.78;5032112;28;20080;-59
2022/01/10 02:52:39;;;;;;;13.48;5.90;;;;;;;-4.94;69.36;99097.09;5031539;28;20056;-58
2022/01/10 02:55:08;;;;;;;13.82;6.32;;;;;;;-4.92;68.93;99094.13;5032110;28;20041;-59
2022/01/10 02:57:35;;;;;;;23.75;7.63;;;;;;;-4.96;69.33;99098.38;5031032;28;20061;-59
2022/01/10 03:00:12;;;;;;;12.45;7.03;;;;;;;-4.92;69.49;99104.97;5032065;28;20050;-58
2022/01/10 03:02:41;;;;;;;19.13;6.25;;;;;;;-4.98;69.22;99100.53;5031423;28;20051;-58
2022/01/10 03:05:09;;;;;;;14.10;5.85;;;;;;;-5.05;69.21;99102.56;5031572;28;20527;-58
2022/01/10 03:07:37;;;;;;;14.38;6.25;;;;;;;-5.06;69.57;99093.63;5031293;28;20556;-59
2022/01/10 03:10:05;;;;;;;14.65;5.55;;;;;;;-5.13;69.64;99097.56;5031887;28;20048;-58
2022/01/10 03:12:32;;;;;;;19.15;6.05;;;;;;;-5.06;70.04;99098.22;5031433;28;20054;-58
2022/01/10 03:14:59;;;;;;;14.80;7.13;;;;;;;-5.03;69.64;99103.16;5035969;28;20092;-60
2022/01/10 03:17:29;;;;;;;17.92;6.35;;;;;;;-5.02;69.55;99115.63;5035342;28;20075;-58
2022/01/10 03:19:56;;;;;;;15.30;6.75;;;;;;;-4.93;69.17;99111.44;5035903;28;20099;-59
2022/01/10 03:22:22;;;;;;;16.67;6.47;;;;;;;-4.92;69.32;99113.13;5035322;28;20042;-58
2022/01/10 03:24:50;;;;;;;16.60;7.00;;;;;;;-4.88;69.50;99115.09;5036268;28;20045;-60
2022/01/10 03:27:16;;;;;;;16.20;6.55;;;;;;;-4.83;69.42;99117.88;5035591;28;20064;-58
2022/01/10 03:29:43;;;;;;;13.45;6.85;;;;;;;-4.81;69.36;99128.50;5035592;28;20054;-59
2022/01/10 03:32:11;;;;;;;13.02;6.50;;;;;;;-4.88;69.02;99120.53;5033226;28;20084;-59
2022/01/10 03:34:39;;;;;;;19.42;7.35;;;;;;;-4.94;69.64;99128.81;5034808;28;20053;-62
2022/01/10 03:37:06;;;;;;;14.02;6.05;;;;;;;-4.96;69.71;99120.06;5035274;28;20049;-61
2022/01/10 03:39:35;;;;;;;13.10;6.32;;;;;;;-4.88;69.30;99127.84;5035202;28;20064;-62
2022/01/10 03:42:03;;;;;;;16.80;6.45;;;;;;;-4.83;69.50;99127.94;5035546;28;20049;-61
2022/01/10 03:44:30;;;;;;;15.60;7.07;;;;;;;-4.81;69.25;99129.31;5033710;28;20057;-62
2022/01/10 03:46:57;;;;;;;18.30;7.68;;;;;;;-4.88;69.62;99125.13;5035389;28;20052;-61
2022/01/10 03:49:25;;;;;;;16.50;7.85;;;;;;;-4.90;69.95;99127.25;5034592;28;20136;-61
2022/01/10 03:51:52;;;;;;;16.52;7.60;;;;;;;-4.88;70.16;99127.84;5035726;28;20132;-61
2022/01/10 03:54:19;;;;;;;14.30;6.97;;;;;;;-4.92;69.59;99132.09;5033813;28;20045;-61
2022/01/10 03:56:47;;;;;;;18.25;7.50;;;;;;;-4.95;70.22;99127.16;5023312;28;20081;-62
2022/01/10 03:59:14;;;;;;;17.30;7.28;;;;;;;-4.88;69.96;99125.13;5030595;28;20060;-62
2022/01/10 04:01:41;;;;;;;18.08;7.40;;;;;;;-4.81;69.26;99128.50;5031640;28;20128;-62
2022/01/10 04:04:08;;;;;;;17.17;7.05;;;;;;;-4.82;69.37;99126.84;5034483;28;20057;-61
2022/01/10 04:06:35;;;;;;;23.15;7.57;;;;;;;-4.93;70.09;99128.56;5034850;28;20048;-61
2022/01/10 04:09:03;;;;;;;16.95;7.35;;;;;;;-4.97;70.37;99123.88;5035260;28;20049;-62
2022/01/10 04:11:30;;;;;;;19.63;8.02;;;;;;;-4.90;70.27;99138.09;5034253;28;20420;-62
2022/01/10 04:13:57;;;;;;;20.02;6.43;;;;;;;-4.85;69.87;99127.34;5033848;28;20050;-61
2022/01/10 04:16:24;;;;;;;18.95;7.38;;;;;;;-4.83;69.66;99131.44;5034410;28;20104;-62
2022/01/10 04:18:51;;;;;;;18.70;7.38;;;;;;;-4.85;69.87;99132.75;5035213;28;20057;-61
2022/01/10 04:21:17;;;;;;;14.68;6.38;;;;;;;-4.85;69.73;99133.59;5030445;28;20060;-62
2022/01/10 04:23:44;;;;;;;17.02;6.82;;;;;;;-4.82;69.84;99126.84;5034667;28;20052;-62
2022/01/10 04:26:11;;;;;;;16.90;7.38;;;;;;;-4.84;70.02;99131.69;5033508;28;20552;-62
2022/01/10 04:28:38;;;;;;;17.55;7.35;;;;;;;-4.80;69.98;99136.38;5034965;28;20049;-62
2022/01/10 04:31:05;;;;;;;20.45;7.38;;;;;;;-4.75;69.72;99130.22;5033776;28;20135;-62
2022/01/10 04:33:32;;;;;;;19.88;8.68;;;;;;;-4.80;69.99;99135.56;5030562;28;20424;-61
2022/01/10 04:35:59;;;;;;;17.38;7.68;;;;;;;-4.81;70.36;99142.06;5034120;28;20049;-61
2022/01/10 04:38:26;;;;;;;18.58;7.70;;;;;;;-4.79;70.10;99145.34;5034301;28;20054;-62
2022/01/10 04:40:53;;;;;;;20.92;7.32;;;;;;;-4.84;69.88;99134.41;5034248;28;20401;-61
2022/01/10 04:43:20;;;;;;;23.25;7.60;;;;;;;-4.90;69.73;99147.06;5033686;28;20050;-62
2022/01/10 04:45:54;;;;;;;14.05;6.82;;;;;;;-4.90;70.21;99146.22;5046309;28;20049;-62
2022/01/10 04:48:21;;;;;;;15.30;6.07;;;;;;;-4.91;70.02;99140.00;5051000;28;20057;-61
2022/01/10 04:53:34;;;;;;;14.95;5.97;;;;;;;-4.97;70.01;99150.97;5030388;28;20050;-62
2022/01/10 04:56:00;;;;;;;16.33;7.65;;;;;;;-4.95;70.14;99154.28;5033414;28;20056;-63
2022/01/10 04:58:27;;;;;;;13.18;6.60;;;;;;;-4.94;70.03;99158.63;5033879;28;20147;-61
2022/01/10 05:00:55;;;;;;;17.27;6.45;;;;;;;-4.96;69.95;99158.03;5033941;28;20053;-61
2022/01/10 05:03:23;;;;;;;16.55;6.10;;;;;;;-4.96;70.27;99163.47;5033524;28;20068;-62
2022/01/10 05:05:53;;;;;;;20.17;7.03;;;;;;;-4.98;70.50;99157.47;5034093;28;20136;-62
2022/01/10 05:08:21;;;;;;;13.75;6.35;;;;;;;-4.92;70.38;99164.66;5024880;28;20050;-61
2022/01/10 05:10:49;;;;;;;12.50;5.65;;;;;;;-4.86;70.10;99167.19;5033647;28;20064;-62
2022/01/10 05:13:16;;;;;;;16.08;6.63;;;;;;;-4.84;70.38;99156.94;5032871;28;20132;-62
2022/01/10 05:15:46;;;;;;;14.80;6.00;;;;;;;-4.80;70.32;99170.84;5033445;28;20049;-62
2022/01/10 05:18:14;;;;;;;13.35;6.30;;;;;;;-4.88;70.17;99171.22;5033276;28;20136;-62
2022/01/10 05:20:41;;;;;;;14.45;5.78;;;;;;;-4.86;70.39;99174.53;5027708;28;20045;-61
2022/01/10 05:23:08;;;;;;;25.45;6.78;;;;;;;-4.80;69.86;99176.28;5030681;28;20519;-62
2022/01/10 05:25:39;;;;;;;15.07;6.55;;;;;;;-4.81;69.69;99177.31;5033218;28;20088;-62
2022/01/10 05:28:17;;;;;;;18.35;6.32;;;;;;;-4.76;69.96;99183.69;5032697;28;20064;-62
2022/01/10 05:30:48;;;;;;;14.88;6.20;;;;;;;-4.74;70.07;99184.22;5032971;28;20115;-62
2022/01/10 05:33:15;;;;;;;20.10;6.75;;;;;;;-4.76;69.67;99190.97;5027162;28;20053;-62
2022/01/10 05:35:44;;;;;;;14.60;6.38;;;;;;;-4.83;69.80;99193.03;5033136;28;20049;-62
2022/01/10 05:38:11;;;;;;;15.48;6.43;;;;;;;-4.86;69.83;99202.44;5031612;28;20620;-61
2022/01/10 05:40:39;;;;;;;17.63;6.03;;;;;;;-4.79;69.79;99202.31;5033121;28;20053;-61
2022/01/10 05:43:06;;;;;;;19.67;5.85;;;;;;;-4.75;69.83;99198.88;5032900;28;20056;-61
2022/01/10 05:45:34;;;;;;;17.10;6.85;;;;;;;-4.73;70.07;99202.19;5033137;28;20136;-61
2022/01/10 05:48:08;;;;;;;19.73;6.30;;;;;;;-4.71;69.62;99210.06;5032698;28;20500;-62
2022/01/10 05:50:36;;;;;;;16.92;5.00;;;;;;;-4.79;70.34;99196.88;5028079;28;20054;-61
2022/01/10 05:53:04;;;;;;;11.02;5.05;;;;;;;-4.77;69.96;99211.84;5032563;28;20057;-61
2022/01/10 05:55:30;;;;;;;15.10;5.40;;;;;;;-4.79;70.02;99215.88;5024465;28;20451;-61
2022/01/10 05:57:57;;;;;;;15.50;5.72;;;;;;;-4.76;69.67;99220.81;5031117;28;20061;-61
2022/01/10 06:00:25;;;;;;;10.35;5.65;;;;;;;-4.76;69.99;99215.41;5036293;28;20431;-61
2022/01/10 06:02:52;;;;;;;14.13;5.25;;;;;;;-4.82;70.11;99202.81;5022691;28;20034;-61
2022/01/10 06:05:19;;;;;;;11.23;5.18;;;;;;;-4.77;70.04;99213.75;5022922;28;20057;-62
2022/01/10 06:07:49;;;;;;;12.38;5.85;;;;;;;-4.71;69.94;99220.94;5032189;28;20487;-62
2022/01/10 06:10:16;;;;;;;11.88;5.47;;;;;;;-4.71;69.42;99226.34;5004464;28;20050;-61
2022/01/10 06:12:45;;;;;;;12.55;5.40;;;;;;;-4.73;70.48;99223.88;5027706;28;20049;-61
2022/01/10 06:15:11;;;;;;;10.35;4.90;;;;;;;-4.68;70.39;99218.53;5031803;28;20049;-61
2022/01/10 06:17:38;;;;;;;11.63;5.47;;;;;;;-4.62;70.39;99216.75;5029382;28;20049;-61
2022/01/10 06:20:06;;;;;;;10.32;5.03;;;;;;;-4.62;69.46;99216.75;5031536;28;20450;-62
2022/01/10 06:22:33;;;;;;;14.43;5.70;;;;;;;-4.59;69.72;99219.78;5025257;28;20147;-61
2022/01/10 06:25:00;;;;;;;11.55;5.18;;;;;;;-4.72;69.88;99221.97;5031663;28;20072;-61
2022/01/10 06:27:29;;;;;;;13.32;5.10;;;;;;;-4.84;69.99;99232.03;5032239;28;20053;-61
2022/01/10 06:29:56;;;;;;;15.25;5.72;;;;;;;-4.92;70.50;99230.53;5031104;28;20087;-61
2022/01/10 06:32:23;;;;;;;9.38;4.90;;;;;;;-4.91;70.46;99231.38;5023022;28;20421;-59
2022/01/10 06:34:52;;;;;;;12.00;5.00;;;;;;;-4.84;70.29;99237.47;5031604;28;20089;-61
2022/01/10 06:37:19;;;;;;;10.82;5.25;;;;;;;-4.89;70.11;99234.69;5031316;28;20432;-60
2022/01/10 06:39:46;;;;;;;10.77;4.88;;;;;;;-4.89;70.15;99238.19;5031647;28;20053;-60
2022/01/10 06:42:13;;;;;;;9.45;4.35;;;;;;;-4.84;70.25;99238.31;5029095;28;20045;-59
2022/01/10 06:44:40;;;;;;;11.43;4.90;;;;;;;-4.80;70.14;99233.22;5031130;28;20073;-59
2022/01/10 06:47:08;;;;;;;10.23;4.32;;;;;;;-4.78;70.31;99241.94;5024557;28;20055;-58
2022/01/10 06:49:35;;;;;;;7.20;4.18;;;;;;;-4.76;69.97;99245.22;5018894;28;20509;-59
2022/01/10 06:52:02;;;;;;;10.40;4.05;;;;;;;-4.79;69.98;99243.84;5020551;28;20509;-61
2022/01/10 06:54:29;;;;;;;9.98;4.35;;;;;;;-4.72;69.99;99238.25;5032026;28;20049;-56
2022/01/10 06:56:58;;;;;;;11.60;4.45;;;;;;;-4.65;69.99;99230.81;5027395;28;20053;-59
2022/01/10 06:59:27;;;;;;;12.57;4.75;;;;;;;-4.65;69.51;99238.94;5048371;28;20056;-56
2022/01/10 07:01:58;;;;;;;6.72;4.18;;;;;;;-4.62;69.93;99246.59;5036456;28;20046;-58
2022/01/10 07:04:27;;;;;;;9.43;3.90;;;;;;;-4.74;70.05;99246.63;5024956;28;20048;-58
2022/01/10 07:06:55;;;;;;;8.25;4.20;;;;;;;-4.85;70.31;99252.94;5023339;28;20099;-59
2022/01/10 07:09:21;;;;;;;8.57;4.05;;;;;;;-4.82;70.22;99249.75;5030980;28;20485;-57
2022/01/10 07:11:49;;;;;;;10.98;5.22;;;;;;;-4.77;69.58;99249.03;5026805;28;20050;-60
2022/01/10 07:14:17;;;;;;;11.90;4.80;;;;;;;-4.82;70.05;99247.03;5031610;28;20486;-55
2022/01/10 07:16:44;;;;;;;7.55;3.95;;;;;;;-4.78;70.68;99253.63;5030344;28;20057;-59
2022/01/10 07:19:11;;;;;;;11.77;4.45;;;;;;;-4.67;69.37;99254.63;5028138;28;20073;-59
2022/01/10 07:21:39;;;;;;;13.85;4.28;;;;;;;-4.62;69.58;99262.88;5024276;28;20046;-59
2022/01/10 07:24:07;;;;;;;10.50;4.47;;;;;;;-4.60;69.37;99247.16;5031552;28;20556;-59
2022/01/10 07:26:34;;;;;;;13.80;4.45;;;;;;;-4.53;68.94;99245.16;5022078;28;20050;-58
2022/01/10 07:29:04;;;;;;;11.07;4.32;;;;;;;-4.55;69.82;99253.53;5031162;28;20049;-58
2022/01/10 07:31:30;;;;;;;11.50;4.22;;;;;;;-4.51;69.37;99253.84;5024741;28;20045;-57
2022/01/10 07:33:57;;;;;;;10.55;4.82;;;;;;;-4.44;69.77;99254.53;5022116;28;20054;-59
2022/01/10 07:36:25;;;;;;;12.02;4.18;;;;;;;-4.38;69.68;99256.28;5029266;28;20548;-59
2022/01/10 07:38:52;;;;;;;13.80;3.75;;;;;;;-4.49;69.69;99252.56;5047605;28;20048;-58
2022/01/10 07:41:18;;;;;;;14.90;4.78;;;;;;;-4.52;69.70;99257.63;5041484;28;20057;-59
2022/01/10 07:43:45;;;;;;;12.70;4.65;;;;;;;-4.49;69.41;99263.41;5032041;28;20053;-57
2022/01/10 07:46:12;;;;;;;6.18;2.95;;;;;;;-4.33;69.70;99261.78;5028740;28;20042;-59
2022/01/10 07:48:42;;;;;;;9.82;4.18;;;;;;;-4.28;69.09;99265.44;5031877;28;20056;-54
2022/01/10 07:51:09;;;;;;;8.85;3.33;;;;;;;-4.25;69.70;99262.22;5049007;28;20053;-58
2022/01/10 07:53:36;;;;;;;9.98;4.20;;;;;;;-4.23;68.80;99270.94;5034463;28;20421;-60
2022/01/10 07:56:05;;;;;;;8.65;3.72;;;;;;;-4.28;69.40;99270.03;5023009;28;20420;-61
2022/01/10 07:58:33;;;;;;;7.68;3.25;;;;;;;-4.31;69.85;99273.25;5026379;28;20140;-59
2022/01/10 08:01:00;;;;;;;11.75;4.07;;;;;;;-4.31;69.91;99270.53;5022831;28;20045;-60
2022/01/10 08:03:27;;;;;;;7.20;2.72;;;;;;;-4.25;69.82;99269.53;5023465;28;20495;-58
2022/01/10 08:05:55;;;;;;;12.95;3.60;;;;;;;-4.23;69.47;99264.72;5034662;28;20095;-62
2022/01/10 08:08:22;;;;;;;11.98;3.67;;;;;;;-4.29;69.17;99268.41;5032532;28;20049;-64
2022/01/10 08:10:49;;;;;;;8.93;3.47;;;;;;;-4.33;69.84;99264.50;5029762;28;20053;-63
2022/01/10 08:13:16;;;;;;;10.52;4.07;;;;;;;-4.28;69.87;99267.31;5027461;28;20045;-61
2022/01/10 08:15:43;;;;;;;7.78;3.22;;;;;;;-4.29;69.25;99268.41;5031858;28;20046;-62
2022/01/10 08:18:10;;;;;;;7.50;2.65;;;;;;;-4.26;70.00;99267.91;5034397;28;20101;-62
2022/01/10 08:20:37;;;;;;;8.05;3.67;;;;;;;-4.28;70.19;99270.03;5031980;28;20073;-62
2022/01/10 08:23:08;;;;;;;7.35;3.20;;;;;;;-4.25;69.84;99274.97;5027821;28;20051;-62
2022/01/10 08:25:35;;;;;;;5.95;2.60;;;;;;;-4.22;69.57;99266.34;5035019;28;20044;-62
2022/01/10 08:28:02;;;;;;;44.00;15.80;;;;;;;-4.15;69.91;99269.72;5028991;28;20060;-62
2022/01/10 08:30:29;;;;;;;15.73;4.32;;;;;;;-4.13;69.20;99262.16;5047356;28;20053;-63
2022/01/10 08:32:56;;;;;;;10.80;3.17;;;;;;;-4.18;69.54;99268.31;5026012;28;20136;-62
2022/01/10 08:35:23;;;;;;;4.80;3.03;;;;;;;-4.14;69.46;99265.94;5025794;28;20057;-60
2022/01/10 08:37:51;;;;;;;13.80;3.08;;;;;;;-4.20;69.04;99267.72;5019164;28;20413;-60
2022/01/10 08:40:18;;;;;;;6.30;2.70;;;;;;;-4.21;70.00;99278.84;5031295;28;20080;-59
2022/01/10 08:42:45;;;;;;;11.43;3.40;;;;;;;-4.12;69.23;99274.66;5030850;28;20049;-61
2022/01/10 08:45:12;;;;;;;7.05;2.95;;;;;;;-3.99;68.97;99277.06;5033780;28;20107;-60
2022/01/10 08:47:39;;;;;;;6.20;2.22;;;;;;;-4.06;69.25;99263.66;5029245;28;20501;-61
2022/01/10 08:50:09;;;;;;;5.00;2.92;;;;;;;-4.01;68.55;99274.59;5031767;28;20049;-60
2022/01/10 08:52:37;;;;;;;7.60;3.13;;;;;;;-3.95;68.97;99272.78;5022994;28;20132;-58
2022/01/10 08:55:04;;;;;;;7.57;2.90;;;;;;;-3.87;68.38;99272.41;5027069;28;20425;-60
2022/01/10 08:57:31;;;;;;;8.50;3.33;;;;;;;-3.68;68.69;99281.94;5029464;28;20057;-60
2022/01/10 08:59:58;;;;;;;8.00;3.33;;;;;;;-3.51;67.78;99280.03;5029875;28;20054;-60
2022/01/10 09:02:25;;;;;;;4.53;2.58;;;;;;;-3.48;67.54;99289.59;5033174;28;20053;-60
2022/01/10 09:04:53;;;;;;;6.88;3.10;;;;;;;-3.55;67.12;99286.22;5033376;28;20057;-60
2022/01/10 09:07:19;;;;;;;7.20;3.40;;;;;;;-3.64;67.56;99291.25;5028079;28;20053;-59
2022/01/10 09:09:47;;;;;;;3.95;2.45;;;;;;;-3.84;67.39;99278.16;5033031;28;20053;-59
2022/01/10 09:12:15;;;;;;;5.63;2.70;;;;;;;-3.92;67.64;99281.28;5030706;28;20064;-57
2022/01/10 09:14:41;;;;;;;10.57;3.28;;;;;;;-3.95;68.27;99286.38;5025648;28;20148;-58
2022/01/10 09:17:08;;;;;;;9.88;3.28;;;;;;;-4.04;67.95;99287.84;5031285;28;20041;-58
2022/01/10 09:19:35;;;;;;;7.45;2.97;;;;;;;-4.03;67.82;99289.47;5032461;28;20046;-60
2022/01/10 09:22:03;;;;;;;10.15;3.65;;;;;;;-4.19;67.75;99282.16;5031058;28;20059;-57
2022/01/10 09:24:30;;;;;;;6.05;2.33;;;;;;;-4.29;68.61;99276.53;5028747;28;20048;-58
2022/01/10 09:26:56;;;;;;;5.25;2.78;;;;;;;-4.28;68.25;99275.47;5023504;28;20132;-59
2022/01/10 09:29:24;;;;;;;6.40;2.55;;;;;;;-4.28;68.05;99278.19;5033606;28;20053;-59
2022/01/10 09:31:52;;;;;;;5.80;2.72;;;;;;;-4.24;68.28;99285.59;5024312;28;20055;-59
2022/01/10 09:34:19;;;;;;;7.20;3.13;;;;;;;-4.26;68.35;99279.56;5029805;28;20064;-57
2022/01/10 09:36:46;;;;;;;5.30;2.72;;;;;;;-4.26;68.41;99284.19;5024913;28;20045;-56
2022/01/10 09:39:13;;;;;;;7.35;2.63;;;;;;;-4.25;68.29;99274.97;5032060;28;20507;-57
2022/01/10 09:41:40;;;;;;;4.28;1.60;;;;;;;-4.31;68.04;99273.25;5021667;28;20148;-59
2022/01/10 09:44:07;;;;;;;7.18;2.88;;;;;;;-4.31;68.00;99265.94;5032217;28;20132;-60
2022/01/10 09:46:35;;;;;;;5.07;2.45;;;;;;;-4.28;68.27;99275.47;5022746;28;20171;-59
2022/01/10 09:49:04;;;;;;;6.30;2.67;;;;;;;-4.24;68.11;99265.75;5032413;28;20053;-55
2022/01/10 09:51:32;;;;;;;12.52;3.90;;;;;;;-4.19;67.89;99280.25;5027021;28;20052;-59
2022/01/10 09:54:01;;;;;;;6.60;2.75;;;;;;;-4.25;67.76;99274.97;5024829;28;20049;-60
2022/01/10 09:56:29;;;;;;;6.72;2.95;;;;;;;-4.20;68.16;99283.22;5018791;28;20421;-61
2022/01/10 09:58:57;;;;;;;7.05;3.10;;;;;;;-4.15;67.67;99286.00;5028782;28;20045;-60
2022/01/10 10:01:26;;;;;;;4.95;2.63;;;;;;;-4.13;68.04;99289.31;5024370;28;20532;-58
2022/01/10 10:03:58;;;;;;;13.10;2.72;;;;;;;-4.02;67.64;99283.00;5035704;28;20167;-58
2022/01/10 10:06:28;;;;;;;9.55;2.95;;;;;;;-4.02;67.70;99288.44;5040192;28;20047;-60
2022/01/10 10:09:00;;;;;;;8.18;2.28;;;;;;;-3.94;67.09;99291.56;5022925;28;20520;-59
2022/01/10 10:11:42;;;;;;;4.88;2.30;;;;;;;-3.87;66.91;99294.13;5024458;28;20049;-60
2022/01/10 10:14:12;;;;;;;4.35;2.55;;;;;;;-3.83;67.78;99296.09;5036330;28;20083;-60
2022/01/10 10:16:46;;;;;;;6.57;2.53;;;;;;;-3.89;66.80;99297.09;5050193;28;20102;-60
2022/01/10 10:19:15;;;;;;;5.43;2.60;;;;;;;-4.00;66.70;99294.41;5047716;28;20080;-59
2022/01/10 10:21:42;;;;;;;65.13;17.25;;;;;;;-3.96;68.05;99279.31;5035913;28;20468;-59
2022/01/10 10:24:09;;;;;;;6.30;3.33;;;;;;;-3.76;66.92;99275.03;5031127;28;20135;-60
2022/01/10 10:26:36;;;;;;;6.32;2.97;;;;;;;-3.60;66.98;99283.41;5021575;28;20449;-59
2022/01/10 10:29:03;;;;;;;7.63;2.53;;;;;;;-3.50;66.84;99287.13;5025891;28;20048;-60
2022/01/10 10:31:36;;;;;;;6.93;2.90;;;;;;;-3.35;66.90;99271.03;5022147;28;20055;-59
2022/01/10 10:34:05;;;;;;;11.98;3.03;;;;;;;-3.33;66.13;99281.66;5028955;28;20084;-58
2022/01/10 10:36:34;;;;;;;4.95;2.20;;;;;;;-3.54;66.37;99287.84;5028732;28;20127;-59
2022/01/10 10:39:07;;;;;;;8.70;2.30;;;;;;;-3.68;67.24;99289.28;5026081;28;20045;-61
2022/01/10 10:41:34;;;;;;;11.80;4.68;;;;;;;-3.72;67.07;99288.09;5019343;28;20061;-59
2022/01/10 10:44:03;;;;;;;12.80;3.88;;;;;;;-3.79;67.12;99288.28;5025811;28;20128;-58
2022/01/10 10:46:30;;;;;;;10.70;2.75;;;;;;;-3.84;67.56;99297.19;5043875;28;20526;-59
2022/01/10 10:49:03;;;;;;;5.15;2.15;;;;;;;-3.90;67.37;99294.63;5047247;28;20083;-59
2022/01/10 10:51:33;;;;;;;9.63;2.83;;;;;;;-3.88;67.20;99301.44;5049500;28;20044;-58
2022/01/10 10:54:12;;;;;;;4.93;2.72;;;;;;;-3.91;67.50;99292.94;5046226;28;20048;-60
2022/01/10 10:56:42;;;;;;;5.00;2.10;;;;;;;-3.92;67.06;99277.72;5031197;28;20064;-59
2022/01/10 10:59:11;;;;;;;5.18;2.65;;;;;;;-3.95;67.30;99276.34;5030914;28;20057;-57
2022/01/10 11:01:40;;;;;;;5.03;2.42;;;;;;;-3.98;67.04;99290.41;5041647;28;20144;-58
2022/01/10 11:04:10;;;;;;;8.85;2.88;;;;;;;-4.02;67.31;99291.16;5046932;28;20048;-58
2022/01/10 11:06:42;;;;;;;5.43;2.35;;;;;;;-3.99;67.32;99293.38;5040239;28;20053;-58
2022/01/10 11:09:12;;;;;;;4.22;2.25;;;;;;;-4.10;67.71;99294.25;5016774;28;20054;-58
2022/01/10 11:11:41;;;;;;;6.13;1.95;;;;;;;-4.13;67.41;99292.03;5031539;28;20067;-58
2022/01/10 11:14:11;;;;;;;6.50;2.28;;;;;;;-4.12;67.18;99299.09;5031439;28;20120;-57
2022/01/10 11:16:41;;;;;;;5.95;2.22;;;;;;;-4.04;67.09;99293.28;5028458;28;20111;-55
2022/01/10 11:19:16;;;;;;;6.78;2.95;;;;;;;-4.02;67.20;99299.28;5023560;28;20055;-58
2022/01/10 11:21:51;;;;;;;9.02;2.35;;;;;;;-3.96;66.95;99295.59;5018193;28;20044;-59
2022/01/10 11:24:54;;;;;;;6.50;2.65;;;;;;;-4.03;67.65;99292.19;5020289;28;20160;-59
2022/01/10 11:27:41;;;;;;;6.13;2.13;;;;;;;-4.06;67.29;99289.97;5025139;28;20136;-60
2022/01/10 11:30:23;;;;;;;5.13;2.53;;;;;;;-4.12;67.65;99285.53;5031403;28;20512;-58
2022/01/10 11:32:54;;;;;;;6.20;2.50;;;;;;;-4.13;67.43;99278.44;5030390;28;20559;-60
2022/01/10 11:35:45;;;;;;;4.05;2.17;;;;;;;-4.11;67.73;99281.75;5032915;28;20107;-58
2022/01/10 11:38:18;;;;;;;3.75;2.10;;;;;;;-4.18;67.43;99286.50;5031483;28;20056;-59
2022/01/10 11:40:51;;;;;;;7.78;2.65;;;;;;;-4.18;67.85;99286.50;5024952;28;20049;-58
2022/01/10 11:43:30;;;;;;;4.90;2.15;;;;;;;-4.12;67.53;99297.22;5027290;28;20069;-57